Fukuei Maru — JD3285 — position and weather

sailwx.info

Track history (hours):
 
Tides and Currents Weather Stations Pressure Air Temp Water Temp Dewpoint Dewpoint Depression Visibility Wind Speed Wind Dir Waves Ship Positions

Fukuei Maru

Last reported at 2018-Jun-22 22:56 UTC. Time now 2018-Jun-24 22:35 UTC.
Position N 33°58' E 134°47'.

Length 58 m; draft 4 m.

Type: Cargo ship. MMSI: 431003166.

Date/timePositionNaut miles runAvg speedWind from/ knotsBaromVisibWave heightAir tempDewpointWater temp
2018-Jun-22 22:56N 33°58' E 134°47'810.3
2018-Jun-22 22:10N 33°53' E 134°55'210.4
2018-Jun-22 22:00N 33°52' E 134°57'510.9
2018-Jun-22 21:30N 33°49' E 135°02'  
2018-Jun-19 06:24N 33°54' E 135°01'410.1
2018-Jun-19 05:58N 33°58' E 134°57'510.3
2018-Jun-19 05:30N 34°01' E 134°54'510.5
2018-Jun-19 05:00N 34°05' E 134°49'910.8
2018-Jun-19 04:08N 34°12' E 134°41'110.2
2018-Jun-19 03:59N 34°13' E 134°40'7 9.6
2018-Jun-19 03:14N 34°17' E 134°33'2 9.6
2018-Jun-19 03:00N 34°18' E 134°31'610.1
2018-Jun-19 02:26N 34°20' E 134°24'  
2018-Jun-16 10:05N 34°25' E 134°22'111.2
2018-Jun-16 09:59N 34°26' E 134°23'511.3
2018-Jun-16 09:30N 34°28' E 134°29'611.3
2018-Jun-16 09:01N 34°30' E 134°35'611.2
2018-Jun-16 08:31N 34°32' E 134°42'610.6
2018-Jun-16 07:56N 34°34' E 134°49'6 9.3
2018-Jun-16 07:20N 34°36' E 134°55'3 8.9
2018-Jun-16 07:00N 34°37' E 134°58'4 6.9
2018-Jun-16 06:29N 34°37' E 135°02'4 7.7
2018-Jun-16 06:00N 34°36' E 135°07'510.8
2018-Jun-16 05:30N 34°36' E 135°13'611.2
2018-Jun-16 05:00N 34°36' E 135°20'5 9.6
2018-Jun-16 04:30N 34°35' E 135°26'1 0.4
2018-Jun-16 00:50N 34°35' E 135°27'0 0.0
2018-Jun-16 00:08N 34°35' E 135°27'0 0.0
2018-Jun-15 23:38N 34°35' E 135°27'0 0.0
2018-Jun-15 23:26N 34°35' E 135°27'0 0.0
2018-Jun-15 17:50N 34°35' E 135°27'0 0.0
2018-Jun-15 17:13N 34°35' E 135°27'0 0.0
2018-Jun-15 16:50N 34°35' E 135°27'0 0.0
2018-Jun-15 16:26N 34°35' E 135°27'0 0.0
2018-Jun-14 16:43N 34°35' E 135°27'0 0.0
2018-Jun-14 16:19N 34°35' E 135°27'0 0.0
2018-Jun-14 15:55N 34°35' E 135°27'0 0.0
2018-Jun-14 09:37N 34°35' E 135°27'0 0.1
2018-Jun-14 09:25N 34°35' E 135°27'0 0.0
2018-Jun-14 08:55N 34°35' E 135°27'0 0.0
2018-Jun-14 04:43N 34°35' E 135°27'0 0.0
2018-Jun-14 04:19N 34°35' E 135°27'0 0.0
2018-Jun-13 19:51N 34°35' E 135°27'1 3.5
2018-Jun-13 19:30N 34°35' E 135°26'6 9.8
2018-Jun-13 18:57N 34°36' E 135°19'510.4
2018-Jun-13 18:31N 34°35' E 135°14'610.8
2018-Jun-13 18:00N 34°34' E 135°07'2211.5
2018-Jun-13 16:07N 34°31' E 134°42'210.6
2018-Jun-13 15:58N 34°30' E 134°40'510.5
2018-Jun-13 15:30N 34°28' E 134°34'510.2
2018-Jun-13 14:59N 34°26' E 134°28'  
Track history (hours):
 
Tides and Currents Weather Stations Pressure Air Temp Water Temp Dewpoint Dewpoint Depression Visibility Wind Speed Wind Dir Waves Ship Positions

Fukuei Maru

Last reported at 2018-Jun-22 22:56 UTC. Time now 2018-Jun-24 22:35 UTC.
Position N 33°58' E 134°47'.

Length 58 m; draft 4 m.

Type: Cargo ship. MMSI: 431003166.

Date/timePositionNaut miles runAvg speedWind from/ knotsBaromVisibWave heightAir tempDewpointWater temp
2018-Jun-22 22:56N 33°58' E 134°47'810.3
2018-Jun-22 22:10N 33°53' E 134°55'210.4
2018-Jun-22 22:00N 33°52' E 134°57'510.9
2018-Jun-22 21:30N 33°49' E 135°02'  
2018-Jun-19 06:24N 33°54' E 135°01'410.1
2018-Jun-19 05:58N 33°58' E 134°57'510.3
2018-Jun-19 05:30N 34°01' E 134°54'510.5
2018-Jun-19 05:00N 34°05' E 134°49'910.8
2018-Jun-19 04:08N 34°12' E 134°41'110.2
2018-Jun-19 03:59N 34°13' E 134°40'7 9.6
2018-Jun-19 03:14N 34°17' E 134°33'2 9.6
2018-Jun-19 03:00N 34°18' E 134°31'610.1
2018-Jun-19 02:26N 34°20' E 134°24'  
2018-Jun-16 10:05N 34°25' E 134°22'111.2
2018-Jun-16 09:59N 34°26' E 134°23'511.3
2018-Jun-16 09:30N 34°28' E 134°29'611.3
2018-Jun-16 09:01N 34°30' E 134°35'611.2
2018-Jun-16 08:31N 34°32' E 134°42'610.6
2018-Jun-16 07:56N 34°34' E 134°49'6 9.3
2018-Jun-16 07:20N 34°36' E 134°55'3 8.9
2018-Jun-16 07:00N 34°37' E 134°58'4 6.9
2018-Jun-16 06:29N 34°37' E 135°02'4 7.7
2018-Jun-16 06:00N 34°36' E 135°07'510.8
2018-Jun-16 05:30N 34°36' E 135°13'611.2
2018-Jun-16 05:00N 34°36' E 135°20'5 9.6
2018-Jun-16 04:30N 34°35' E 135°26'1 0.4
2018-Jun-16 00:50N 34°35' E 135°27'0 0.0
2018-Jun-16 00:08N 34°35' E 135°27'0 0.0
2018-Jun-15 23:38N 34°35' E 135°27'0 0.0
2018-Jun-15 23:26N 34°35' E 135°27'0 0.0
2018-Jun-15 17:50N 34°35' E 135°27'0 0.0
2018-Jun-15 17:13N 34°35' E 135°27'0 0.0
2018-Jun-15 16:50N 34°35' E 135°27'0 0.0
2018-Jun-15 16:26N 34°35' E 135°27'0 0.0
2018-Jun-14 16:43N 34°35' E 135°27'0 0.0
2018-Jun-14 16:19N 34°35' E 135°27'0 0.0
2018-Jun-14 15:55N 34°35' E 135°27'0 0.0
2018-Jun-14 09:37N 34°35' E 135°27'0 0.1
2018-Jun-14 09:25N 34°35' E 135°27'0 0.0
2018-Jun-14 08:55N 34°35' E 135°27'0 0.0
2018-Jun-14 04:43N 34°35' E 135°27'0 0.0
2018-Jun-14 04:19N 34°35' E 135°27'0 0.0
2018-Jun-13 19:51N 34°35' E 135°27'1 3.5
2018-Jun-13 19:30N 34°35' E 135°26'6 9.8
2018-Jun-13 18:57N 34°36' E 135°19'510.4
2018-Jun-13 18:31N 34°35' E 135°14'610.8
2018-Jun-13 18:00N 34°34' E 135°07'2211.5
2018-Jun-13 16:07N 34°31' E 134°42'210.6
2018-Jun-13 15:58N 34°30' E 134°40'510.5
2018-Jun-13 15:30N 34°28' E 134°34'510.2
2018-Jun-13 14:59N 34°26' E 134°28'  

Dump ship's entire track history